createdAt,value
2023-02-03T00:02:50.856Z,72.35
2023-02-03T00:05:54.624Z,72.42
2023-02-03T00:08:59.471Z,71.63
2023-02-03T00:12:02.025Z,72.10
2023-02-03T00:15:04.941Z,72.45
2023-02-03T00:18:07.473Z,72.33
2023-02-03T00:21:10.200Z,71.20
2023-02-03T00:24:12.686Z,70.86
2023-02-03T00:27:15.195Z,70.76
2023-02-03T00:30:18.100Z,70.59
2023-02-03T00:33:20.673Z,70.43
2023-02-03T00:36:24.004Z,70.51
2023-02-03T00:39:26.593Z,70.01
2023-02-03T00:42:29.145Z,70.16
2023-02-03T00:45:31.727Z,69.88
2023-02-03T00:48:34.276Z,69.78
2023-02-03T00:51:36.773Z,70.09
2023-02-03T00:54:39.301Z,69.54
2023-02-03T00:57:41.902Z,69.24
2023-02-03T01:00:46.110Z,68.77
2023-02-03T01:03:48.770Z,68.89
2023-02-03T01:06:56.294Z,68.32
2023-02-03T01:09:59.000Z,67.77
2023-02-03T01:13:01.748Z,67.98
2023-02-03T01:16:07.862Z,67.04
2023-02-03T01:19:10.553Z,66.69
2023-02-03T01:22:14.102Z,66.68
2023-02-03T01:25:16.671Z,65.84
2023-02-03T01:28:19.324Z,66.15
2023-02-03T01:31:25.028Z,65.71
2023-02-03T01:34:27.953Z,65.91
2023-02-03T01:37:30.461Z,65.62
2023-02-03T01:40:33.024Z,66.03
2023-02-03T01:43:41.923Z,66.63
2023-02-03T01:46:50.315Z,66.69
2023-02-03T01:50:15.250Z,66.82
2023-02-03T01:53:19.547Z,66.15
2023-02-03T01:56:23.307Z,65.41
2023-02-03T01:59:26.701Z,63.51
2023-02-03T02:02:29.515Z,62.95
2023-02-03T02:05:36.382Z,64.17
2023-02-03T02:08:42.104Z,62.49
2023-02-03T02:11:44.670Z,63.37
2023-02-03T02:14:48.132Z,64.16
2023-02-03T02:18:02.427Z,64.15
2023-02-03T02:21:41.107Z,63.91
2023-02-03T02:24:43.629Z,63.99
2023-02-03T02:28:33.069Z,63.88
2023-02-03T02:31:44.678Z,63.35
2023-02-03T02:34:53.680Z,62.97
2023-02-03T02:38:21.152Z,63.12
2023-02-03T02:41:29.895Z,63.45
2023-02-03T02:44:39.154Z,62.73
2023-02-03T02:47:42.121Z,62.64
2023-02-03T02:50:48.137Z,62.05
2023-02-03T02:53:57.182Z,62.39
2023-02-03T02:57:05.772Z,62.75
2023-02-03T03:00:09.304Z,62.33
2023-02-03T03:03:12.912Z,62.69
2023-02-03T03:06:29.199Z,61.61
2023-02-03T03:09:41.702Z,61.81
2023-02-03T03:12:53.560Z,62.11
2023-02-03T03:15:59.039Z,62.11
2023-02-03T03:19:10.210Z,62.53
2023-02-03T03:22:16.533Z,62.62
2023-02-03T03:25:28.357Z,62.08
2023-02-03T03:28:39.176Z,62.54
2023-02-03T03:31:42.403Z,62.90
2023-02-03T03:34:45.112Z,62.89
2023-02-03T03:38:07.162Z,62.13
2023-02-03T03:41:35.479Z,61.71
2023-02-03T03:45:03.535Z,61.55
2023-02-03T03:48:16.584Z,61.63
2023-02-03T03:51:28.561Z,62.04
2023-02-03T03:54:32.685Z,63.21
2023-02-03T03:57:45.415Z,63.02
2023-02-03T04:00:49.185Z,63.53
2023-02-03T04:04:02.203Z,63.12
2023-02-03T04:07:04.839Z,63.56
2023-02-03T04:10:22.280Z,64.15
2023-02-03T04:13:24.925Z,63.64
2023-02-03T04:16:27.576Z,64.08
2023-02-03T04:19:30.547Z,64.01
2023-02-03T04:22:33.117Z,63.82
2023-02-03T04:25:35.636Z,64.07
2023-02-03T04:28:38.214Z,64.72
2023-02-03T04:31:41.200Z,64.61
2023-02-03T04:34:43.704Z,63.86
2023-02-03T04:37:46.927Z,64.07
2023-02-03T04:40:49.960Z,63.85
2023-02-03T04:43:52.506Z,64.20
2023-02-03T04:46:54.937Z,64.80
2023-02-03T04:49:57.630Z,65.21
2023-02-03T04:53:00.595Z,65.13
2023-02-03T04:56:03.603Z,65.73
2023-02-03T04:59:06.088Z,66.92
2023-02-03T05:02:08.641Z,66.78
2023-02-03T05:05:11.154Z,67.85
2023-02-03T05:08:13.752Z,68.04
2023-02-03T05:11:16.321Z,69.21
2023-02-03T05:14:19.070Z,69.09
2023-02-03T05:17:21.583Z,66.71
2023-02-03T05:20:24.567Z,64.61
2023-02-03T05:23:27.238Z,63.26
2023-02-03T05:26:30.143Z,62.62
2023-02-03T05:29:32.656Z,60.95
2023-02-03T05:32:35.227Z,60.16
2023-02-03T05:35:37.759Z,59.57
2023-02-03T05:38:40.220Z,58.86
2023-02-03T05:41:56.556Z,58.76
2023-02-03T05:44:59.688Z,58.16
2023-02-03T05:48:04.859Z,57.81
2023-02-03T05:51:07.465Z,57.94
2023-02-03T05:54:10.879Z,57.97
2023-02-03T05:57:13.604Z,57.69
2023-02-03T06:00:16.547Z,57.46
2023-02-03T06:03:19.147Z,57.14
2023-02-03T06:06:21.701Z,57.04
2023-02-03T06:09:24.522Z,56.37
2023-02-03T06:12:28.365Z,56.35
2023-02-03T06:15:31.806Z,55.95
2023-02-03T06:18:34.336Z,55.61
2023-02-03T06:21:36.885Z,54.79
2023-02-03T06:24:39.386Z,54.90
2023-02-03T06:27:42.476Z,54.83
2023-02-03T06:30:45.211Z,55.27
2023-02-03T06:33:47.870Z,55.00
2023-02-03T06:36:50.513Z,54.79
2023-02-03T06:39:52.971Z,54.34
2023-02-03T06:42:56.645Z,54.19
2023-02-03T06:46:00.298Z,53.67
2023-02-03T06:49:03.923Z,54.00
2023-02-03T06:52:08.191Z,53.59
2023-02-03T06:55:11.231Z,53.72
2023-02-03T06:58:13.954Z,53.90
2023-02-03T07:01:16.644Z,53.70
2023-02-03T07:04:19.287Z,54.12
2023-02-03T07:07:23.879Z,52.84
2023-02-03T07:10:26.900Z,52.96
2023-02-03T07:13:29.576Z,53.01
2023-02-03T07:16:32.798Z,53.04
2023-02-03T07:19:35.462Z,52.81
2023-02-03T07:22:40.803Z,52.90
2023-02-03T07:25:44.252Z,53.23
2023-02-03T07:28:47.181Z,53.11
2023-02-03T07:31:51.650Z,52.86
2023-02-03T07:34:54.342Z,52.62
2023-02-03T07:37:56.894Z,52.36
2023-02-03T07:40:59.403Z,51.34
2023-02-03T07:44:02.011Z,52.11
2023-02-03T07:47:04.522Z,52.49
2023-02-03T07:50:07.406Z,52.41
2023-02-03T07:53:10.497Z,52.11
2023-02-03T07:56:13.086Z,53.03
2023-02-03T07:59:17.393Z,53.08
2023-02-03T08:02:19.821Z,52.53
2023-02-03T08:05:22.337Z,52.12
2023-02-03T08:08:24.973Z,52.33
2023-02-03T08:11:27.474Z,51.97
2023-02-03T08:14:31.301Z,52.46
2023-02-03T08:17:33.835Z,52.68
2023-02-03T08:20:36.446Z,53.30
2023-02-03T08:23:39.087Z,54.44
2023-02-03T08:26:41.811Z,55.53
2023-02-03T08:29:46.011Z,56.42
2023-02-03T08:32:49.308Z,56.99
2023-02-03T08:35:52.001Z,57.12
2023-02-03T08:38:54.598Z,58.11
2023-02-03T08:41:57.351Z,58.31
2023-02-03T08:44:59.947Z,58.58
2023-02-03T08:48:02.545Z,58.79
2023-02-03T08:51:13.408Z,58.49
2023-02-03T08:54:16.081Z,58.90
2023-02-03T08:57:18.632Z,58.52
2023-02-03T09:00:21.698Z,58.67
2023-02-03T09:03:25.590Z,58.73
2023-02-03T09:06:30.088Z,58.40
2023-02-03T09:09:34.530Z,58.77
2023-02-03T09:12:37.041Z,58.70
2023-02-03T09:15:39.919Z,61.20
2023-02-03T09:18:42.652Z,65.01
2023-02-03T09:21:47.166Z,68.33
2023-02-03T09:24:51.472Z,71.40
2023-02-03T09:27:54.134Z,75.52
2023-02-03T09:31:04.326Z,77.51
2023-02-03T09:34:07.097Z,78.91
2023-02-03T09:37:09.984Z,79.38
2023-02-03T09:40:35.252Z,80.58
2023-02-03T09:43:53.800Z,82.45
2023-02-03T09:47:28.625Z,83.56
2023-02-03T09:50:35.188Z,83.78
2023-02-03T09:53:45.586Z,84.08
2023-02-03T09:56:52.637Z,84.18
2023-02-03T09:59:58.566Z,84.14
2023-02-03T10:03:25.429Z,84.26
2023-02-03T10:06:42.047Z,84.46
2023-02-03T10:10:03.411Z,84.25
2023-02-03T10:13:32.166Z,84.07
2023-02-03T10:16:59.588Z,84.13
2023-02-03T10:20:05.340Z,83.44
2023-02-03T10:23:14.751Z,83.56
2023-02-03T10:26:22.924Z,84.10
2023-02-03T10:29:36.271Z,84.47
2023-02-03T10:32:39.929Z,84.35
2023-02-03T10:35:48.131Z,84.70
2023-02-03T10:39:07.502Z,84.67
2023-02-03T10:42:13.361Z,84.28
2023-02-03T10:45:16.359Z,84.56
2023-02-03T10:48:19.889Z,84.63
2023-02-03T10:51:30.720Z,84.20
2023-02-03T10:54:35.676Z,84.45
2023-02-03T10:57:39.535Z,84.29
2023-02-03T11:00:42.224Z,84.10
2023-02-03T11:03:56.084Z,84.33
2023-02-03T11:07:09.446Z,84.90
2023-02-03T11:10:37.509Z,85.18
2023-02-03T11:13:40.480Z,85.33
2023-02-03T11:16:44.622Z,85.51
2023-02-03T11:19:49.593Z,85.92
2023-02-03T11:22:52.401Z,85.87
2023-02-03T11:25:55.840Z,85.74
2023-02-03T11:29:00.870Z,87.16
2023-02-03T11:32:22.433Z,87.09
2023-02-03T11:35:27.224Z,87.65
2023-02-03T11:38:40.366Z,88.13
2023-02-03T11:41:43.111Z,87.70
2023-02-03T11:44:45.717Z,87.37
2023-02-03T11:47:54.098Z,87.66
2023-02-03T11:51:17.614Z,87.57
2023-02-03T11:54:23.101Z,88.25
2023-02-03T11:57:39.006Z,88.17
2023-02-03T12:00:57.245Z,88.67
2023-02-03T12:04:02.582Z,88.65
2023-02-03T12:07:32.935Z,88.55
2023-02-03T12:11:13.762Z,88.58
2023-02-03T12:14:22.376Z,88.54
2023-02-03T12:17:41.527Z,88.17
2023-02-03T12:21:05.455Z,88.64
2023-02-03T12:24:16.364Z,88.20
2023-02-03T12:27:43.352Z,88.32
2023-02-03T12:30:54.308Z,88.51
2023-02-03T12:34:06.892Z,88.36
2023-02-03T12:37:16.631Z,88.39
2023-02-03T12:40:47.692Z,88.27
2023-02-03T12:43:55.131Z,88.44
2023-02-03T12:47:07.642Z,88.44
2023-02-03T12:50:32.329Z,88.15
2023-02-03T12:53:40.036Z,88.25
2023-02-03T12:56:45.241Z,87.83
2023-02-03T12:59:58.459Z,87.76
2023-02-03T13:03:39.980Z,88.24
2023-02-03T13:06:51.567Z,88.27
2023-02-03T13:10:03.835Z,89.12
2023-02-03T13:13:11.865Z,89.07
2023-02-03T13:16:16.815Z,89.11
2023-02-03T13:19:23.121Z,88.96
2023-02-03T13:22:26.710Z,89.29
2023-02-03T13:25:50.873Z,89.21
2023-02-03T13:29:14.902Z,89.11
2023-02-03T13:32:29.264Z,89.17
2023-02-03T13:36:09.742Z,89.28
2023-02-03T13:39:40.466Z,89.26
2023-02-03T13:43:06.137Z,89.26
2023-02-03T13:46:25.208Z,89.18
2023-02-03T13:49:33.017Z,89.02
2023-02-03T13:52:45.753Z,88.53
2023-02-03T13:56:00.462Z,88.88
2023-02-03T13:59:13.846Z,88.43
2023-02-03T14:02:19.318Z,88.26
2023-02-03T14:05:40.535Z,89.02
2023-02-03T14:08:49.393Z,88.79
2023-02-03T14:12:12.496Z,88.88
2023-02-03T14:15:20.949Z,88.66
2023-02-03T14:18:49.599Z,89.31
2023-02-03T14:21:55.618Z,89.14
2023-02-03T14:25:06.030Z,89.05
2023-02-03T14:28:17.957Z,89.11
2023-02-03T14:31:23.148Z,88.60
2023-02-03T14:34:51.765Z,88.92
2023-02-03T14:38:02.034Z,89.12
2023-02-03T14:41:05.649Z,88.79
2023-02-03T14:44:30.150Z,88.57
2023-02-03T14:47:35.265Z,89.02
2023-02-03T14:50:49.555Z,88.82
2023-02-03T14:53:52.282Z,88.52
2023-02-03T14:57:21.724Z,88.87
2023-02-03T15:00:25.541Z,88.37
2023-02-03T15:03:30.470Z,88.49
2023-02-03T15:06:42.045Z,88.63
2023-02-03T15:09:47.310Z,88.82
2023-02-03T15:12:54.500Z,88.94
2023-02-03T15:16:01.318Z,89.09
2023-02-03T15:19:09.711Z,89.02
2023-02-03T15:22:19.457Z,89.05
2023-02-03T15:25:25.543Z,88.77
2023-02-03T15:28:30.374Z,88.69
2023-02-03T15:31:48.956Z,88.27
2023-02-03T15:34:53.543Z,88.92
2023-02-03T15:38:01.431Z,89.06
2023-02-03T15:41:11.185Z,88.74
2023-02-03T15:44:33.033Z,88.73
2023-02-03T15:47:46.875Z,88.53
2023-02-03T15:50:59.131Z,88.68
2023-02-03T15:54:15.789Z,88.37
2023-02-03T15:57:25.468Z,88.29
2023-02-03T16:00:33.352Z,88.60
2023-02-03T16:03:56.970Z,88.23
2023-02-03T16:07:00.734Z,88.28
2023-02-03T16:10:03.667Z,88.88
2023-02-03T16:13:24.139Z,88.29
2023-02-03T16:16:31.940Z,88.00
2023-02-03T16:19:38.494Z,87.70
2023-02-03T16:22:42.304Z,87.30
2023-02-03T16:26:21.851Z,88.00
2023-02-03T16:29:48.075Z,87.94
2023-02-03T16:33:27.454Z,87.81
2023-02-03T16:36:48.793Z,88.10
2023-02-03T16:40:09.692Z,88.63
2023-02-03T16:43:34.287Z,88.33
2023-02-03T16:46:56.085Z,88.85
2023-02-03T16:50:21.539Z,88.61
2023-02-03T16:53:30.656Z,88.27
2023-02-03T16:56:33.740Z,88.30
2023-02-03T16:59:36.482Z,88.55
2023-02-03T17:02:39.148Z,88.48
2023-02-03T17:05:44.547Z,89.06
2023-02-03T17:08:47.489Z,89.34
2023-02-03T17:11:52.146Z,89.28
2023-02-03T17:14:58.568Z,89.48
2023-02-03T17:18:02.004Z,89.34
2023-02-03T17:21:07.499Z,89.35
2023-02-03T17:24:10.288Z,89.56
2023-02-03T17:27:13.480Z,89.43
2023-02-03T17:30:16.856Z,89.88
2023-02-03T17:33:19.542Z,89.49
2023-02-03T17:36:22.550Z,89.27
2023-02-03T17:56:19.663Z,86.42
2023-02-03T17:59:22.387Z,86.81
2023-02-03T18:02:24.900Z,85.85
2023-02-03T18:05:29.474Z,86.23
2023-02-03T18:08:33.243Z,86.06
2023-02-03T18:11:37.552Z,86.16
2023-02-03T18:14:41.139Z,86.48
2023-02-03T18:17:43.761Z,85.93
2023-02-03T18:20:46.333Z,86.11
2023-02-03T18:23:51.374Z,86.33
2023-02-03T18:26:54.676Z,85.90
2023-02-03T18:29:57.552Z,85.93
2023-02-03T18:33:02.009Z,85.50
2023-02-03T18:36:06.972Z,85.13
2023-02-03T18:39:12.408Z,84.55
2023-02-03T18:42:15.717Z,84.59
2023-02-03T18:45:18.561Z,83.44
2023-02-03T18:48:21.421Z,83.40
2023-02-03T18:51:26.907Z,78.67
2023-02-03T18:54:30.195Z,78.91
2023-02-03T18:57:32.624Z,77.67
2023-02-03T19:00:35.371Z,78.96
2023-02-03T19:03:38.843Z,77.46
2023-02-03T19:06:45.541Z,77.36
2023-02-03T19:09:48.144Z,78.79
2023-02-03T19:12:50.818Z,78.25
2023-02-03T19:15:54.059Z,78.04
2023-02-03T19:18:57.189Z,79.43
2023-02-03T19:21:59.949Z,80.32
2023-02-03T19:25:02.896Z,79.53
2023-02-03T19:28:14.234Z,79.49
2023-02-03T19:31:20.174Z,74.90
2023-02-03T19:34:23.451Z,73.80
2023-02-03T19:37:26.722Z,72.28
2023-02-03T19:40:31.622Z,72.96
2023-02-03T19:43:34.399Z,70.89
2023-02-03T19:46:37.602Z,70.20
2023-02-03T19:49:40.893Z,70.82
2023-02-03T19:52:45.039Z,71.23
2023-02-03T19:55:48.380Z,71.52
2023-02-03T19:58:53.776Z,72.20
2023-02-03T20:01:58.109Z,71.56
2023-02-03T20:05:02.634Z,71.34
2023-02-03T20:08:06.075Z,71.97
2023-02-03T20:11:09.098Z,72.13
2023-02-03T20:14:12.615Z,72.42
2023-02-03T20:17:15.779Z,72.71
2023-02-03T20:20:20.709Z,73.42
2023-02-03T20:23:25.802Z,74.61
2023-02-03T20:26:29.701Z,74.93
2023-02-03T20:29:32.511Z,75.65
2023-02-03T20:32:36.773Z,75.88
2023-02-03T20:35:40.001Z,76.54
2023-02-03T20:38:43.112Z,76.43
2023-02-03T20:41:47.949Z,76.33
2023-02-03T20:44:52.208Z,76.30
2023-02-03T20:47:55.677Z,76.95
2023-02-03T20:50:58.823Z,78.28
2023-02-03T20:54:01.825Z,77.72
2023-02-03T20:57:12.061Z,77.54
2023-02-03T21:00:16.617Z,76.42
2023-02-03T21:03:39.018Z,76.47
2023-02-03T21:06:42.585Z,76.17
2023-02-03T21:09:47.067Z,75.73
2023-02-03T21:12:50.266Z,75.26
2023-02-03T21:16:00.177Z,75.44
2023-02-03T21:19:03.677Z,75.62
2023-02-03T21:22:26.826Z,75.54
2023-02-03T21:25:33.205Z,74.91
2023-02-03T21:28:36.872Z,74.91
2023-02-03T21:31:41.280Z,74.79
2023-02-03T21:34:45.278Z,75.12
2023-02-03T21:37:48.617Z,74.83
2023-02-03T21:40:52.711Z,74.57
2023-02-03T21:43:57.696Z,74.72
2023-02-03T21:47:05.265Z,74.61
2023-02-03T21:50:26.945Z,74.90
2023-02-03T21:53:35.497Z,75.23
2023-02-03T21:56:41.405Z,74.39
2023-02-03T21:59:49.208Z,73.99
2023-02-03T22:02:59.499Z,74.47
2023-02-03T22:06:34.948Z,75.02
2023-02-03T22:09:37.735Z,74.79
2023-02-03T22:12:40.501Z,75.14
2023-02-03T22:15:43.491Z,74.80
2023-02-03T22:18:47.381Z,74.35
2023-02-03T22:21:50.988Z,74.41
2023-02-03T22:24:53.532Z,74.33
2023-02-03T22:27:56.162Z,73.65
2023-02-03T22:30:58.740Z,73.95
2023-02-03T22:34:01.379Z,73.96
2023-02-03T22:37:03.835Z,73.98
2023-02-03T22:40:06.641Z,74.07
2023-02-03T22:43:09.133Z,73.73
2023-02-03T22:46:11.883Z,73.77
2023-02-03T22:49:14.581Z,73.82
2023-02-03T22:52:17.092Z,73.55
2023-02-03T22:55:20.479Z,73.18
2023-02-03T22:58:23.075Z,73.67
2023-02-03T23:01:25.617Z,74.00
2023-02-03T23:04:28.127Z,73.51
2023-02-03T23:07:31.491Z,73.59
2023-02-03T23:10:34.314Z,73.07
2023-02-03T23:13:37.154Z,72.79
2023-02-03T23:16:39.723Z,72.93
2023-02-03T23:19:42.232Z,72.55
2023-02-03T23:22:45.277Z,72.45
2023-02-03T23:25:47.740Z,71.79
2023-02-03T23:28:50.452Z,72.40
2023-02-03T23:31:53.149Z,71.20
2023-02-03T23:35:14.362Z,70.92
2023-02-03T23:38:17.808Z,71.10
2023-02-03T23:41:20.289Z,71.44
2023-02-03T23:44:23.842Z,71.05
2023-02-03T23:47:26.399Z,71.27
2023-02-03T23:50:29.669Z,70.76
2023-02-03T23:53:32.385Z,71.15
2023-02-03T23:56:34.872Z,70.70
2023-02-03T23:59:37.889Z,70.95
